Time;durP1;ratioP1;P1;durP2;ratioP2;P2;SDS_P1;SDS_P2;PMS_P1;PMS_P2;Temp;Humidity;BMP_temperature;BMP_pressure;BME280_temperature;BME280_humidity;BME280_pressure;Samples;Min_cycle;Max_cycle;Signal;HPM_P1;HPM_P2
2022/07/07 00:02:17;;;;;;;3.95;2.40;;;;;;;13.10;100.00;101032.91;5082469;28;20433;-82
2022/07/07 00:04:51;;;;;;;3.80;2.20;;;;;;;13.17;100.00;101027.91;5076678;28;20426;-82
2022/07/07 00:07:24;;;;;;;3.80;2.20;;;;;;;13.08;100.00;101018.75;5073280;28;20500;-83
2022/07/07 00:09:57;;;;;;;3.95;2.30;;;;;;;13.11;100.00;101023.63;5072647;28;20427;-83
2022/07/07 00:12:30;;;;;;;3.13;2.20;;;;;;;13.12;100.00;101010.75;5071826;28;20413;-83
2022/07/07 00:15:05;;;;;;;3.80;2.10;;;;;;;13.06;100.00;101010.84;5060320;28;20431;-83
2022/07/07 00:17:39;;;;;;;4.63;2.40;;;;;;;13.04;100.00;101006.75;5068685;28;20427;-83
2022/07/07 00:20:13;;;;;;;3.67;2.00;;;;;;;13.04;100.00;101001.28;5079313;28;20780;-83
2022/07/07 00:22:46;;;;;;;4.10;2.00;;;;;;;13.09;100.00;100990.28;5072977;28;20456;-83
2022/07/07 00:25:14;;;;;;;2.83;1.75;;;;;;;13.10;100.00;100975.53;5069566;28;20423;-82
2022/07/07 00:27:48;;;;;;;3.00;1.70;;;;;;;13.12;100.00;100978.81;5066932;28;21327;-86
2022/07/07 00:30:21;;;;;;;3.38;1.90;;;;;;;13.11;100.00;100977.16;5065319;28;20408;-83
2022/07/07 00:32:54;;;;;;;3.40;2.08;;;;;;;13.09;100.00;100969.25;5069292;28;20446;-85
2022/07/07 00:35:28;;;;;;;4.00;2.25;;;;;;;13.19;100.00;100970.25;5069411;28;20431;-84
2022/07/07 00:37:57;;;;;;;3.13;1.90;;;;;;;13.25;100.00;100977.28;5068057;28;20466;-83
2022/07/07 00:40:30;;;;;;;2.42;1.60;;;;;;;13.24;100.00;100960.09;5057447;28;20420;-83
2022/07/07 00:43:04;;;;;;;2.83;1.73;;;;;;;13.23;100.00;100960.34;5069308;28;20427;-84
2022/07/07 00:45:37;;;;;;;5.22;2.60;;;;;;;13.29;100.00;100961.13;5069110;28;20423;-84
2022/07/07 00:48:10;;;;;;;2.88;1.80;;;;;;;13.27;100.00;100954.03;5065454;28;20934;-83
2022/07/07 00:50:47;;;;;;;2.58;1.75;;;;;;;13.24;100.00;100951.06;5062596;28;20720;-85
2022/07/07 00:53:20;;;;;;;2.85;1.73;;;;;;;13.29;100.00;100958.41;5069996;28;20431;-84
2022/07/07 00:55:53;;;;;;;2.60;1.80;;;;;;;13.30;100.00;100943.59;5064969;28;20420;-83
2022/07/07 00:58:26;;;;;;;3.25;1.80;;;;;;;13.30;100.00;100944.44;5065942;28;20433;-84
2022/07/07 01:00:55;;;;;;;3.05;1.70;;;;;;;13.27;100.00;100948.56;5066763;28;20910;-84
2022/07/07 01:03:28;;;;;;;3.20;1.98;;;;;;;13.30;100.00;100941.72;5070761;28;20423;-84
2022/07/07 01:06:04;;;;;;;2.55;1.80;;;;;;;13.29;100.00;100933.81;5065448;28;20434;-84
2022/07/07 01:08:38;;;;;;;2.97;2.00;;;;;;;13.30;100.00;100929.94;5062978;28;20415;-85
2022/07/07 01:11:11;;;;;;;3.90;1.88;;;;;;;13.39;100.00;100931.75;5063350;28;20424;-84
2022/07/07 01:13:40;;;;;;;3.08;1.90;;;;;;;13.37;100.00;100919.50;5069136;28;20427;-84
2022/07/07 01:16:08;;;;;;;2.65;1.85;;;;;;;13.38;100.00;100913.75;5062995;28;20427;-83
2022/07/07 01:18:44;;;;;;;4.70;1.90;;;;;;;13.33;100.00;100916.50;5073829;28;20448;-84
2022/07/07 01:21:21;;;;;;;2.83;2.00;;;;;;;13.37;100.00;100914.84;5068611;28;20411;-84
2022/07/07 01:23:56;;;;;;;2.80;1.80;;;;;;;13.35;100.00;100914.31;5069234;28;20443;-84
2022/07/07 01:26:30;;;;;;;3.47;2.10;;;;;;;13.42;100.00;100905.75;5059177;28;20427;-85
2022/07/07 01:29:03;;;;;;;2.83;1.88;;;;;;;13.40;100.00;100891.59;5064213;28;20425;-85
2022/07/07 01:31:37;;;;;;;3.20;1.90;;;;;;;13.38;100.00;100902.00;5069537;28;20759;-86
2022/07/07 01:34:10;;;;;;;4.57;1.85;;;;;;;13.44;100.00;100898.91;5057533;28;20766;-87
2022/07/07 01:36:43;;;;;;;3.47;1.70;;;;;;;13.43;100.00;100893.72;5045749;28;20428;-84
2022/07/07 01:39:12;;;;;;;2.50;1.45;;;;;;;13.43;100.00;100891.00;5057690;28;20778;-88
2022/07/07 01:41:40;;;;;;;2.05;1.40;;;;;;;13.37;100.00;100889.44;5052370;28;20419;-87
2022/07/07 01:44:14;;;;;;;5.13;1.60;;;;;;;13.41;100.00;100890.50;5055301;28;20427;-88
2022/07/07 01:46:47;;;;;;;1.98;1.30;;;;;;;13.38;100.00;100878.22;5052373;28;20426;-87
2022/07/07 01:49:20;;;;;;;4.10;1.30;;;;;;;13.40;100.00;100877.91;5068241;28;20421;-90
2022/07/07 01:51:53;;;;;;;2.10;1.20;;;;;;;13.44;100.00;100871.56;5057949;28;20424;-88
2022/07/07 01:54:28;;;;;;;1.73;1.20;;;;;;;13.35;100.00;100869.75;5063839;28;20829;-89
2022/07/07 01:57:02;;;;;;;1.70;1.30;;;;;;;13.38;100.00;100871.91;5052107;28;20416;-88
2022/07/07 01:59:30;;;;;;;1.23;1.13;;;;;;;13.39;100.00;100865.34;5070101;28;20428;-88
2022/07/07 02:02:04;;;;;;;5.03;1.30;;;;;;;13.45;100.00;100866.94;5066421;28;20899;-90
2022/07/07 02:04:32;;;;;;;2.13;1.20;;;;;;;13.40;100.00;100861.53;5070462;28;20416;-87
2022/07/07 02:07:06;;;;;;;3.60;1.20;;;;;;;13.38;100.00;100859.09;5064698;28;20427;-86
2022/07/07 02:09:41;;;;;;;2.03;1.20;;;;;;;13.37;100.00;100851.97;5073841;28;20418;-87
2022/07/07 02:12:14;;;;;;;1.80;1.20;;;;;;;13.43;100.00;100867.19;5063585;28;20914;-88
2022/07/07 02:14:47;;;;;;;1.50;1.17;;;;;;;13.44;100.00;100855.16;5077618;28;20473;-88
2022/07/07 02:17:20;;;;;;;1.63;1.20;;;;;;;13.45;100.00;100847.78;5071692;28;20464;-89
2022/07/07 02:19:53;;;;;;;1.60;1.10;;;;;;;13.50;100.00;100842.22;5081135;28;20923;-88
2022/07/07 02:22:21;;;;;;;2.15;1.13;;;;;;;13.46;100.00;100843.91;5061967;28;20438;-87
2022/07/07 02:24:56;;;;;;;2.33;1.20;;;;;;;13.45;100.00;100839.59;5050070;28;20446;-89
2022/07/07 02:27:29;;;;;;;1.60;1.20;;;;;;;13.52;100.00;100844.66;5049432;28;20510;-85
2022/07/07 02:30:02;;;;;;;1.63;1.13;;;;;;;13.54;100.00;100845.19;5069752;28;20776;-88
2022/07/07 02:32:30;;;;;;;1.67;1.10;;;;;;;13.54;100.00;100845.19;5052293;28;20415;-88
2022/07/07 02:35:04;;;;;;;1.40;1.00;;;;;;;13.55;100.00;100839.44;5077412;28;20412;-87
2022/07/07 02:37:37;;;;;;;2.65;1.20;;;;;;;13.53;100.00;100835.34;5056904;28;20678;-84
2022/07/07 02:40:12;;;;;;;1.52;1.10;;;;;;;13.60;100.00;100838.53;5054677;28;20419;-86
2022/07/07 02:42:45;;;;;;;1.30;1.10;;;;;;;13.61;100.00;100837.41;5068298;28;20771;-88
2022/07/07 02:45:14;;;;;;;1.80;1.23;;;;;;;13.61;100.00;100832.75;5051483;28;20439;-89
2022/07/07 02:47:47;;;;;;;1.80;1.20;;;;;;;13.61;100.00;100832.75;5055426;28;20406;-86
2022/07/07 02:50:20;;;;;;;1.70;1.30;;;;;;;13.57;100.00;100830.91;5074990;28;20414;-88
2022/07/07 02:52:54;;;;;;;2.22;1.50;;;;;;;13.60;100.00;100830.31;5077639;28;20503;-89
2022/07/07 02:55:28;;;;;;;3.90;1.60;;;;;;;13.59;100.00;100824.06;5074131;28;20423;-86
2022/07/07 02:57:57;;;;;;;2.70;1.70;;;;;;;13.64;100.00;100825.09;5050916;28;21054;-88
2022/07/07 03:00:25;;;;;;;2.60;1.70;;;;;;;13.68;100.00;100826.91;5053009;28;20772;-85
2022/07/07 03:02:54;;;;;;;3.50;1.90;;;;;;;13.67;100.00;100819.84;5073500;28;20429;-86
2022/07/07 03:05:27;;;;;;;2.83;1.90;;;;;;;13.68;100.00;100818.72;5074651;28;20419;-88
2022/07/07 03:08:01;;;;;;;2.97;1.70;;;;;;;13.69;100.00;100814.88;5055457;28;20403;-89
2022/07/07 03:10:36;;;;;;;2.63;1.70;;;;;;;13.71;100.00;100807.19;5061823;28;20439;-89
2022/07/07 03:13:09;;;;;;;4.07;1.80;;;;;;;13.71;100.00;100812.66;5076132;28;20415;-88
2022/07/07 03:15:42;;;;;;;3.00;1.90;;;;;;;13.72;100.00;100799.78;5072161;28;20438;-88
2022/07/07 03:18:15;;;;;;;3.13;1.85;;;;;;;13.74;100.00;100789.34;5064646;28;20908;-87
2022/07/07 03:20:48;;;;;;;3.50;2.00;;;;;;;13.76;100.00;100796.16;5072642;28;20760;-88
2022/07/07 03:23:22;;;;;;;3.35;2.10;;;;;;;13.77;100.00;100794.25;5059510;28;20419;-87
2022/07/07 03:25:56;;;;;;;4.63;2.17;;;;;;;13.74;100.00;100786.63;5077442;28;20427;-88
2022/07/07 03:28:29;;;;;;;4.28;2.30;;;;;;;13.80;100.00;100790.91;5073179;28;20423;-86
2022/07/07 03:31:02;;;;;;;4.65;2.90;;;;;;;13.84;100.00;100785.66;5078934;28;21053;-90
2022/07/07 03:33:35;;;;;;;5.57;3.15;;;;;;;13.86;100.00;100789.69;5072273;28;20450;-89
2022/07/07 03:36:09;;;;;;;5.53;3.33;;;;;;;13.84;100.00;100783.72;5073317;28;20914;-86
2022/07/07 03:38:42;;;;;;;5.25;3.20;;;;;;;13.91;100.00;100783.34;5071376;28;20446;-89
2022/07/07 03:41:16;;;;;;;6.53;3.47;;;;;;;13.85;100.00;100776.31;5076235;28;20489;-88
2022/07/07 03:43:44;;;;;;;6.88;3.97;;;;;;;13.89;100.00;100780.09;5068473;28;20479;-88
2022/07/07 03:46:18;;;;;;;6.60;3.70;;;;;;;13.92;100.00;100774.84;5063179;28;20415;-88
2022/07/07 03:48:51;;;;;;;6.93;4.10;;;;;;;13.91;100.00;100775.94;5083387;28;20430;-90
2022/07/07 03:51:24;;;;;;;6.55;4.18;;;;;;;13.96;100.00;100777.78;5074580;28;20902;-89
2022/07/07 03:53:57;;;;;;;8.45;4.30;;;;;;;13.95;100.00;100782.44;5060414;28;20441;-88
2022/07/07 03:56:27;;;;;;;6.85;4.40;;;;;;;13.96;100.00;100780.50;5062742;28;20417;-89
2022/07/07 03:59:00;;;;;;;7.37;4.60;;;;;;;14.03;100.00;100772.75;5054659;28;20425;-88
2022/07/07 04:01:28;;;;;;;8.30;4.80;;;;;;;14.01;100.00;100771.41;5057786;28;20760;-88
2022/07/07 04:04:01;;;;;;;7.65;4.43;;;;;;;14.06;100.00;100774.88;5060013;28;20450;-88
2022/07/07 04:06:35;;;;;;;7.13;4.40;;;;;;;14.11;100.00;100769.31;5067198;28;20993;-89
2022/07/07 04:09:08;;;;;;;7.13;4.10;;;;;;;14.14;100.00;100765.16;5067146;28;20419;-88
2022/07/07 04:11:43;;;;;;;7.22;4.57;;;;;;;14.18;100.00;100768.91;5073495;28;20420;-88
2022/07/07 04:14:16;;;;;;;7.00;4.32;;;;;;;14.09;100.00;100768.78;5075462;28;20419;-89
2022/07/07 04:16:50;;;;;;;8.85;4.13;;;;;;;14.10;100.00;100764.16;5077359;28;20416;-87
2022/07/07 04:19:23;;;;;;;8.07;4.30;;;;;;;14.16;100.00;100764.88;5060145;28;20410;-90
2022/07/07 04:21:56;;;;;;;7.18;4.20;;;;;;;14.20;100.00;100760.41;5070515;28;20423;-89
2022/07/07 04:24:29;;;;;;;6.63;3.88;;;;;;;14.15;100.00;100753.09;5058797;28;20410;-90
2022/07/07 04:26:59;;;;;;;6.70;4.05;;;;;;;14.18;100.00;100765.34;5072496;28;20420;-89
2022/07/07 04:29:33;;;;;;;6.37;4.00;;;;;;;14.10;100.00;100745.78;5069667;28;20446;-92
2022/07/07 04:32:07;;;;;;;6.07;3.80;;;;;;;14.12;100.00;100746.28;5059302;28;20420;-88
2022/07/07 04:34:40;;;;;;;7.47;3.90;;;;;;;14.08;100.00;100725.31;5070133;28;20430;-91
2022/07/07 04:37:13;;;;;;;7.03;3.97;;;;;;;14.16;100.00;100740.22;5066166;28;20431;-80
2022/07/07 04:39:42;;;;;;;6.25;3.90;;;;;;;14.15;100.00;100738.59;5075959;28;20772;-91
2022/07/07 04:42:16;;;;;;;7.00;4.10;;;;;;;14.14;100.00;100740.53;5075499;28;20424;-89
2022/07/07 04:44:49;;;;;;;6.95;3.92;;;;;;;14.11;100.00;100736.47;5074787;28;20446;-92
2022/07/07 04:47:22;;;;;;;6.18;3.50;;;;;;;14.10;100.00;100734.03;5074737;28;20423;-88
2022/07/07 04:49:56;;;;;;;6.85;3.90;;;;;;;14.08;100.00;100725.31;5075727;28;20434;-90
2022/07/07 04:52:29;;;;;;;6.83;3.70;;;;;;;14.08;100.00;100719.84;5070922;28;20445;-93
2022/07/07 04:55:02;;;;;;;6.85;3.90;;;;;;;14.12;100.00;100724.38;5054267;28;20445;-92
2022/07/07 04:57:37;;;;;;;5.88;3.65;;;;;;;14.18;100.00;100721.56;5058219;28;20911;-93
2022/07/07 05:00:10;;;;;;;6.53;3.90;;;;;;;14.09;100.00;100714.06;5069813;28;20421;-92
2022/07/07 05:02:43;;;;;;;7.03;3.88;;;;;;;14.18;100.00;100724.31;5070600;28;20421;-92
2022/07/07 05:05:16;;;;;;;6.47;3.80;;;;;;;14.25;100.00;100722.78;5086515;28;20774;-91
2022/07/07 05:07:50;;;;;;;7.47;4.13;;;;;;;14.23;100.00;100727.75;5045951;28;20910;-92
2022/07/07 05:10:23;;;;;;;7.40;4.20;;;;;;;14.23;100.00;100719.53;5086454;28;20858;-90
2022/07/07 05:12:58;;;;;;;6.45;3.80;;;;;;;14.25;100.00;100719.22;5065990;28;20427;-88
2022/07/07 05:15:31;;;;;;;6.20;3.70;;;;;;;14.31;100.00;100723.50;5064072;28;20761;-91
2022/07/07 05:17:59;;;;;;;6.65;3.88;;;;;;;14.31;100.00;100722.69;5069816;28;20433;-92
2022/07/07 05:20:32;;;;;;;6.32;3.75;;;;;;;14.29;100.00;100729.28;5063887;28;20427;-92
2022/07/07 05:23:00;;;;;;;5.93;3.45;;;;;;;14.31;100.00;100731.72;5061773;28;20422;-91
2022/07/07 05:25:34;;;;;;;6.40;3.50;;;;;;;14.30;100.00;100730.09;5066089;28;20416;-91
2022/07/07 05:28:03;;;;;;;5.57;3.40;;;;;;;14.31;100.00;100731.72;5067267;28;20809;-91
2022/07/07 05:30:32;;;;;;;5.55;3.47;;;;;;;14.40;100.00;100737.28;5078326;28;20414;-89
2022/07/07 05:33:07;;;;;;;6.82;3.38;;;;;;;14.39;100.00;100733.75;5076855;28;20418;-92
2022/07/07 05:35:40;;;;;;;5.25;3.13;;;;;;;14.41;100.00;100736.19;5080932;28;20433;-93
2022/07/07 05:38:14;;;;;;;5.85;3.20;;;;;;;14.36;100.00;100723.41;5086151;28;20420;-92
2022/07/07 05:40:47;;;;;;;5.63;3.25;;;;;;;14.44;100.00;100732.81;5076458;28;20434;-91
2022/07/07 05:43:16;;;;;;;5.82;3.17;;;;;;;14.46;100.00;100744.31;5069424;28;20432;-92
2022/07/07 05:45:50;;;;;;;5.25;3.20;;;;;;;14.51;100.00;100744.19;5049551;28;20934;-94
2022/07/07 05:48:18;;;;;;;5.05;3.20;;;;;;;14.49;100.00;100737.41;5053394;28;20424;-92
2022/07/07 05:50:51;;;;;;;5.13;3.10;;;;;;;14.60;100.00;100744.28;5083048;28;20442;-91
2022/07/07 05:53:24;;;;;;;4.30;2.70;;;;;;;14.58;100.00;100743.78;5053742;28;20912;-93
2022/07/07 05:55:58;;;;;;;4.00;2.70;;;;;;;14.62;100.00;100736.56;5049695;28;20424;-93
2022/07/07 05:58:32;;;;;;;6.57;2.72;;;;;;;14.69;100.00;100742.47;5058186;28;20436;-90
2022/07/07 06:01:00;;;;;;;5.03;2.60;;;;;;;14.67;100.00;100747.47;5047846;28;20424;-93
2022/07/07 06:03:34;;;;;;;4.30;2.60;;;;;;;14.68;100.00;100749.09;5062692;28;20419;-88
2022/07/07 06:06:07;;;;;;;3.53;2.33;;;;;;;14.73;100.00;100745.41;5061473;28;20747;-94
2022/07/07 06:08:35;;;;;;;3.25;2.10;;;;;;;14.74;100.00;100738.81;5067158;28;20424;-93
2022/07/07 06:11:09;;;;;;;3.38;2.10;;;;;;;14.74;100.00;100741.56;5055943;28;20430;-91
2022/07/07 06:13:43;;;;;;;4.53;2.50;;;;;;;14.86;100.00;100747.34;5071270;28;20427;-91
2022/07/07 06:16:16;;;;;;;3.78;2.00;;;;;;;14.91;100.00;100746.41;5069978;28;20916;-88
2022/07/07 06:18:49;;;;;;;2.85;1.90;;;;;;;14.89;100.00;100741.22;5078457;28;20416;-93
2022/07/07 06:21:23;;;;;;;3.80;2.10;;;;;;;15.01;100.00;100742.63;5056128;28;20435;-91
2022/07/07 06:23:56;;;;;;;3.08;2.10;;;;;;;15.11;100.00;100745.94;5077830;28;20430;-93
2022/07/07 06:26:29;;;;;;;2.90;2.10;;;;;;;15.11;100.00;100736.94;5062451;28;20414;-90
2022/07/07 06:28:59;;;;;;;2.95;1.88;;;;;;;15.09;100.00;100731.75;5071897;28;20425;-92
2022/07/07 06:31:32;;;;;;;2.78;1.98;;;;;;;15.28;100.00;100736.25;5068830;28;20415;-91
2022/07/07 06:34:05;;;;;;;3.50;1.75;;;;;;;15.22;100.00;100741.06;5048053;28;20424;-92
2022/07/07 06:36:33;;;;;;;3.67;1.92;;;;;;;15.34;100.00;100734.19;5053457;28;20427;-92
2022/07/07 06:39:07;;;;;;;2.75;1.90;;;;;;;15.44;100.00;100742.19;5064682;28;20415;-93
2022/07/07 06:41:40;;;;;;;2.90;2.00;;;;;;;15.28;100.00;100720.59;5072460;28;20415;-91
2022/07/07 06:44:15;;;;;;;2.65;1.80;;;;;;;15.57;100.00;100733.06;5056102;28;20431;-92
2022/07/07 06:46:43;;;;;;;3.17;1.73;;;;;;;15.53;100.00;100734.81;5053636;28;20419;-92
2022/07/07 06:49:16;;;;;;;2.63;1.70;;;;;;;15.64;100.00;100744.41;5070433;28;20438;-88
2022/07/07 06:51:49;;;;;;;1.88;1.40;;;;;;;15.73;100.00;100741.75;5066863;28;20430;-92
2022/07/07 06:54:23;;;;;;;2.08;1.58;;;;;;;15.92;100.00;100738.81;5057744;28;20928;-87
2022/07/07 06:56:56;;;;;;;2.28;1.50;;;;;;;15.95;100.00;100729.13;5039777;28;20772;-86
2022/07/07 06:59:31;;;;;;;2.25;1.42;;;;;;;16.13;100.00;100741.84;5066882;28;20422;-90
2022/07/07 07:02:05;;;;;;;2.72;1.40;;;;;;;16.31;100.00;100731.72;5048372;28;20438;-89
2022/07/07 07:04:38;;;;;;;2.08;1.42;;;;;;;16.43;100.00;100735.81;5070527;28;20423;-89
2022/07/07 07:07:06;;;;;;;7.05;4.65;;;;;;;16.46;100.00;100730.50;5051329;28;20820;-91
2022/07/07 07:09:39;;;;;;;2.30;1.45;;;;;;;16.51;100.00;100736.97;5052083;28;20423;-93
2022/07/07 07:12:08;;;;;;;2.20;1.47;;;;;;;16.51;100.00;100737.75;5070378;28;20420;-92
2022/07/07 07:14:42;;;;;;;2.08;1.40;;;;;;;16.51;100.00;100728.72;5070982;28;20418;-90
2022/07/07 07:17:11;;;;;;;2.75;1.30;;;;;;;16.55;100.00;100722.25;5049298;28;20428;-91
2022/07/07 07:19:44;;;;;;;2.30;1.30;;;;;;;16.79;100.00;100732.84;5059085;28;20434;-90
2022/07/07 07:22:17;;;;;;;2.23;1.10;;;;;;;17.03;100.00;100744.50;5065458;28;20430;-89
2022/07/07 07:24:50;;;;;;;2.20;1.20;;;;;;;16.96;100.00;100732.06;5026407;28;20420;-88
2022/07/07 07:27:24;;;;;;;2.60;1.20;;;;;;;16.98;100.00;100732.53;5055565;28;20438;-85
2022/07/07 07:29:58;;;;;;;3.78;1.23;;;;;;;16.89;100.00;100734.50;5033423;28;20427;-87
2022/07/07 07:32:31;;;;;;;2.90;1.20;;;;;;;16.83;100.00;100736.56;5018434;28;20419;-86
2022/07/07 07:35:05;;;;;;;1.10;1.00;;;;;;;16.72;100.00;100740.72;5036264;28;22554;-86
2022/07/07 07:37:39;;;;;;;2.17;1.10;;;;;;;16.75;100.00;100747.53;5016954;28;20432;-83
2022/07/07 07:40:13;;;;;;;1.63;1.00;;;;;;;16.65;100.00;100743.97;5048345;28;20427;-83
2022/07/07 07:42:46;;;;;;;1.60;1.00;;;;;;;16.59;100.00;100747.16;5039040;28;20494;-84
2022/07/07 07:45:22;;;;;;;3.35;1.00;;;;;;;16.59;100.00;100742.47;5033340;28;20437;-83
2022/07/07 07:47:56;;;;;;;2.10;1.10;;;;;;;16.71;100.00;100741.03;5039945;28;20943;-84
2022/07/07 07:50:24;;;;;;;14.75;8.82;;;;;;;16.80;100.00;100745.44;5019188;28;20434;-84
2022/07/07 07:52:52;;;;;;;0.90;0.80;;;;;;;16.80;100.00;100750.13;5034049;28;20451;-83
2022/07/07 07:55:26;;;;;;;2.58;1.00;;;;;;;16.82;100.00;100745.94;5024564;28;20895;-86
2022/07/07 07:57:54;;;;;;;2.70;1.25;;;;;;;16.78;100.00;100746.91;5025589;28;20427;-84
2022/07/07 08:00:24;;;;;;;2.50;1.20;;;;;;;16.85;100.00;100752.72;5040024;28;20431;-84
2022/07/07 08:02:58;;;;;;;3.13;1.35;;;;;;;16.99;100.00;100750.66;5015080;28;20946;-86
2022/07/07 08:05:32;;;;;;;4.10;1.30;;;;;;;17.34;100.00;100747.13;5039780;28;20726;-85
2022/07/07 08:08:06;;;;;;;2.77;0.90;;;;;;;17.60;100.00;100752.59;5020607;28;20442;-88
2022/07/07 08:10:34;;;;;;;1.30;0.80;;;;;;;17.44;100.00;100757.81;5041284;28;20425;-84
2022/07/07 08:13:07;;;;;;;1.88;1.10;;;;;;;16.94;100.00;100750.00;5016813;28;20443;-85
2022/07/07 08:15:42;;;;;;;3.00;1.10;;;;;;;16.91;100.00;100758.91;5035564;28;20456;-84
2022/07/07 08:18:15;;;;;;;1.45;0.80;;;;;;;16.73;100.00;100764.34;5016255;28;20800;-85
2022/07/07 08:20:43;;;;;;;2.22;1.10;;;;;;;16.67;100.00;100769.16;5038649;28;21263;-85
2022/07/07 08:23:17;;;;;;;1.67;1.00;;;;;;;16.58;100.00;100765.56;5045556;28;20430;-85
2022/07/07 08:25:50;;;;;;;2.08;1.20;;;;;;;16.82;100.00;100775.34;5031182;28;20432;-84
2022/07/07 08:28:23;;;;;;;2.30;1.10;;;;;;;16.82;100.00;100776.16;5011037;28;20757;-86
2022/07/07 08:30:57;;;;;;;3.67;1.27;;;;;;;16.88;100.00;100776.03;5045243;28;20940;-85
2022/07/07 08:33:26;;;;;;;1.83;1.20;;;;;;;17.26;100.00;100773.50;5033149;28;21159;-85
2022/07/07 08:35:59;;;;;;;3.00;1.30;;;;;;;17.39;100.00;100768.19;4999344;28;20425;-88
2022/07/07 08:38:32;;;;;;;3.47;1.40;;;;;;;17.37;100.00;100773.97;5039510;28;20488;-85
2022/07/07 08:41:05;;;;;;;3.70;1.30;;;;;;;17.40;100.00;100781.59;5039527;28;20922;-84
2022/07/07 08:43:39;;;;;;;4.80;1.40;;;;;;;17.73;100.00;100774.78;5023611;28;20424;-83
2022/07/07 08:46:08;;;;;;;2.97;1.30;;;;;;;17.87;100.00;100755.31;5037504;28;20435;-85
2022/07/07 08:48:36;;;;;;;3.17;1.23;;;;;;;18.06;100.00;100772.28;5042818;28;20629;-84
2022/07/07 08:51:05;;;;;;;3.57;1.50;;;;;;;18.17;100.00;100778.25;5038955;28;20427;-83
2022/07/07 08:53:38;;;;;;;2.75;1.35;;;;;;;17.91;100.00;100792.91;5004864;28;20431;-83
2022/07/07 08:56:08;;;;;;;3.47;1.10;;;;;;;17.45;100.00;100797.13;5009228;28;20455;-85
2022/07/07 08:58:43;;;;;;;3.38;1.10;;;;;;;16.83;100.00;100812.69;5009519;28;20440;-84
2022/07/07 09:01:18;;;;;;;1.55;0.70;;;;;;;16.30;100.00;100806.19;5035169;28;21119;-82
2022/07/07 09:03:51;;;;;;;2.03;0.90;;;;;;;16.24;100.00;100811.00;5035073;28;20435;-86
2022/07/07 09:06:24;;;;;;;1.77;0.80;;;;;;;16.29;100.00;100816.34;5058723;28;20934;-90
2022/07/07 09:08:58;;;;;;;1.92;0.80;;;;;;;16.19;100.00;100821.31;5044741;28;20431;-86
2022/07/07 09:11:33;;;;;;;3.65;1.23;;;;;;;16.21;100.00;100824.56;5074485;28;20426;-86
2022/07/07 09:14:11;;;;;;;2.42;1.00;;;;;;;16.52;100.00;100818.22;5055820;28;20428;-90
2022/07/07 09:16:45;;;;;;;2.40;1.20;;;;;;;16.75;100.00;100828.03;5051117;28;20430;-91
2022/07/07 09:19:18;;;;;;;4.10;1.30;;;;;;;16.72;100.00;100823.16;5044724;28;20912;-88
2022/07/07 09:21:47;;;;;;;2.50;1.20;;;;;;;16.82;100.00;100833.06;5042341;28;20968;-87
2022/07/07 09:24:20;;;;;;;3.08;1.20;;;;;;;17.27;100.00;100827.38;5064299;28;20412;-87
2022/07/07 09:26:55;;;;;;;4.50;1.27;;;;;;;17.43;100.00;100826.91;5036107;28;20458;-89
2022/07/07 09:29:28;;;;;;;3.35;1.35;;;;;;;17.12;100.00;100834.16;5067250;28;20424;-86
2022/07/07 09:32:00;;;;;;;3.93;1.40;;;;;;;17.07;100.00;100837.06;5083840;28;20890;-89
2022/07/07 09:34:35;;;;;;;3.13;1.20;;;;;;;16.99;100.00;100840.59;5070904;28;20435;-88
2022/07/07 09:39:59;;;;;;;3.25;1.27;;;;;;;16.61;100.00;100850.13;5073134;28;20422;-91
2022/07/07 09:42:29;;;;;;;2.65;1.17;;;;;;;16.56;100.00;100857.69;5090086;28;20413;-89
2022/07/07 09:45:05;;;;;;;3.38;1.10;;;;;;;16.59;100.00;100846.88;5085600;28;20418;-87
2022/07/07 09:47:39;;;;;;;2.28;0.90;;;;;;;16.67;100.00;100862.59;5042751;28;20429;-86
2022/07/07 09:50:09;;;;;;;2.00;1.00;;;;;;;16.70;100.00;100855.66;5065866;28;20494;-88
2022/07/07 09:52:47;;;;;;;4.88;1.05;;;;;;;16.82;100.00;100861.38;5048467;28;20437;-89
2022/07/07 09:55:20;;;;;;;1.83;1.00;;;;;;;16.96;100.00;100875.03;5060790;28;20429;-87
2022/07/07 09:57:53;;;;;;;3.58;1.00;;;;;;;17.14;100.00;100877.84;5039951;28;20434;-86
2022/07/07 10:00:21;;;;;;;2.72;0.98;;;;;;;17.30;100.00;100872.69;5032993;28;20808;-85
2022/07/07 10:02:54;;;;;;;2.50;1.00;;;;;;;17.32;100.00;100876.72;5040846;28;20423;-85
2022/07/07 10:05:29;;;;;;;3.45;0.90;;;;;;;17.37;100.00;100874.97;5027557;28;20416;-85
2022/07/07 10:08:03;;;;;;;1.98;0.98;;;;;;;17.28;100.00;100867.50;5033609;28;20438;-84
2022/07/07 10:10:36;;;;;;;2.67;1.00;;;;;;;17.12;100.00;100866.31;5033796;28;20435;-87
2022/07/07 10:13:10;;;;;;;1.65;0.88;;;;;;;17.53;100.00;100886.31;5057647;28;20419;-85
2022/07/07 10:15:43;;;;;;;2.78;0.90;;;;;;;17.54;100.00;100871.41;5042065;28;20420;-86
2022/07/07 10:18:18;;;;;;;2.55;1.05;;;;;;;17.65;100.00;100892.00;5021310;28;20428;-84
2022/07/07 10:20:47;;;;;;;3.10;0.90;;;;;;;17.61;100.00;100902.03;5016794;28;20434;-85
2022/07/07 10:23:21;;;;;;;2.83;0.90;;;;;;;17.88;100.00;100898.13;5044332;28;20495;-85
2022/07/07 10:26:00;;;;;;;2.67;0.80;;;;;;;17.99;100.00;100895.91;5030836;28;20430;-86
2022/07/07 10:28:52;;;;;;;2.03;0.73;;;;;;;17.98;100.00;100900.63;5042587;28;20435;-86
2022/07/07 10:31:27;;;;;;;1.60;0.90;;;;;;;17.89;100.00;100902.53;5044497;28;20435;-84
2022/07/07 10:34:05;;;;;;;3.75;1.00;;;;;;;17.69;100.00;100912.25;5022496;28;20436;-86
2022/07/07 10:37:04;;;;;;;1.95;0.98;;;;;;;17.93;100.00;100913.72;5018658;28;20429;-84
2022/07/07 10:39:42;;;;;;;3.60;1.20;;;;;;;18.16;100.00;100915.19;5020555;28;20431;-84
2022/07/07 10:42:39;;;;;;;6.70;2.33;;;;;;;18.41;100.00;100912.72;5041268;28;20432;-85
2022/07/07 10:45:08;;;;;;;1.67;0.93;;;;;;;18.45;100.00;100915.59;5031060;28;20424;-88
2022/07/07 10:47:42;;;;;;;2.00;0.90;;;;;;;18.77;100.00;100914.22;5040827;28;20430;-85
2022/07/07 10:50:29;;;;;;;1.75;0.90;;;;;;;18.94;100.00;100915.34;5023241;28;20439;-85
2022/07/07 10:53:02;;;;;;;4.07;1.00;;;;;;;18.86;100.00;100919.69;5037961;28;20438;-85
2022/07/07 10:55:52;;;;;;;1.98;0.82;;;;;;;19.08;100.00;100921.41;5044018;28;20769;-86
2022/07/07 10:58:54;;;;;;;1.70;0.90;;;;;;;19.12;100.00;100913.31;5021381;28;20424;-86
2022/07/07 11:01:23;;;;;;;2.78;0.85;;;;;;;18.73;100.00;100906.97;5034746;28;20427;-85
2022/07/07 11:03:57;;;;;;;2.97;0.90;;;;;;;18.69;100.00;100923.34;5019942;28;20435;-82
2022/07/07 11:07:11;;;;;;;2.95;1.02;;;;;;;18.56;100.00;100930.69;5039183;28;20431;-86
2022/07/07 11:09:57;;;;;;;3.92;1.10;;;;;;;18.76;100.00;100931.91;5011132;28;20903;-83
2022/07/07 11:12:35;;;;;;;4.05;0.93;;;;;;;18.47;100.00;100944.44;5039867;28;20439;-86
2022/07/07 11:15:35;;;;;;;2.72;0.90;;;;;;;18.27;100.00;100937.69;5047639;28;20427;-83
2022/07/07 11:18:10;;;;;;;4.78;1.13;;;;;;;18.27;100.00;100934.09;5043720;28;20438;-86
2022/07/07 11:20:58;;;;;;;2.70;1.00;;;;;;;18.49;100.00;100950.47;5029610;28;20437;-84
2022/07/07 11:23:42;;;;;;;3.47;1.00;;;;;;;18.19;100.00;100953.06;5013794;28;20443;-84
2022/07/07 11:26:17;;;;;;;2.33;0.90;;;;;;;17.84;100.00;100953.06;5035582;28;20425;-86
2022/07/07 11:28:51;;;;;;;3.58;0.98;;;;;;;17.50;100.00;100957.34;5045510;28;21103;-84
2022/07/07 11:31:20;;;;;;;2.70;0.90;;;;;;;17.38;100.00;100959.91;5043759;28;20429;-82
2022/07/07 11:33:55;;;;;;;3.00;1.05;;;;;;;17.41;100.00;100953.75;5047468;28;20432;-85
2022/07/07 11:36:30;;;;;;;4.03;1.37;;;;;;;17.66;100.00;100963.22;5037675;28;20866;-84
2022/07/07 11:39:07;;;;;;;1.65;0.80;;;;;;;17.96;100.00;100957.13;5041069;28;20430;-87
2022/07/07 11:41:40;;;;;;;3.80;1.10;;;;;;;18.46;100.00;100953.06;5049645;28;20446;-85
2022/07/07 11:44:20;;;;;;;3.38;1.00;;;;;;;18.74;100.00;100950.72;5021780;28;20444;-87
2022/07/07 11:46:53;;;;;;;2.13;0.85;;;;;;;19.00;100.00;100947.09;5044289;28;20433;-85
2022/07/07 11:49:27;;;;;;;2.70;0.80;;;;;;;18.85;100.00;100948.41;5079627;28;20429;-86